sensor_id;sensor_type;location;lat;lon;timestamp;pressure;altitude;pressure_sealevel;temperature;humidity
19236;BME280;9752;54.270;12.470;2022-12-10T00:03:03;101232.00;;;-2.76;100.00
19236;BME280;9752;54.270;12.470;2022-12-10T00:08:05;101239.78;;;-2.82;100.00
19236;BME280;9752;54.270;12.470;2022-12-10T00:13:07;101244.88;;;-2.82;100.00
19236;BME280;9752;54.270;12.470;2022-12-10T00:18:10;101246.69;;;-2.81;100.00
19236;BME280;9752;54.270;12.470;2022-12-10T00:23:11;101248.13;;;-2.90;100.00
19236;BME280;9752;54.270;12.470;2022-12-10T00:28:13;101236.50;;;-2.95;100.00
19236;BME280;9752;54.270;12.470;2022-12-10T00:33:17;101233.59;;;-2.98;100.00
19236;BME280;9752;54.270;12.470;2022-12-10T00:38:18;101235.78;;;-2.87;100.00
19236;BME280;9752;54.270;12.470;2022-12-10T00:43:22;101243.59;;;-2.85;100.00
19236;BME280;9752;54.270;12.470;2022-12-10T00:48:25;101241.63;;;-2.81;100.00
19236;BME280;9752;54.270;12.470;2022-12-10T00:53:29;101238.91;;;-2.82;100.00
19236;BME280;9752;54.270;12.470;2022-12-10T00:58:33;101245.94;;;-2.87;100.00
19236;BME280;9752;54.270;12.470;2022-12-10T01:03:37;101240.50;;;-2.90;100.00
19236;BME280;9752;54.270;12.470;2022-12-10T01:08:39;101230.50;;;-2.88;100.00
19236;BME280;9752;54.270;12.470;2022-12-10T01:13:42;101233.06;;;-2.88;100.00
19236;BME280;9752;54.270;12.470;2022-12-10T01:18:47;101235.06;;;-2.93;100.00
19236;BME280;9752;54.270;12.470;2022-12-10T01:23:50;101229.97;;;-2.93;100.00
19236;BME280;9752;54.270;12.470;2022-12-10T01:28:53;101238.25;;;-3.16;100.00
19236;BME280;9752;54.270;12.470;2022-12-10T01:33:57;101238.84;;;-2.97;100.00
19236;BME280;9752;54.270;12.470;2022-12-10T01:39:02;101243.00;;;-3.04;100.00
19236;BME280;9752;54.270;12.470;2022-12-10T01:49:46;101245.94;;;-3.01;100.00
19236;BME280;9752;54.270;12.470;2022-12-10T01:54:48;101254.63;;;-2.99;100.00
19236;BME280;9752;54.270;12.470;2022-12-10T01:59:53;101250.97;;;-3.08;100.00
19236;BME280;9752;54.270;12.470;2022-12-10T02:05:04;101247.19;;;-3.05;100.00
19236;BME280;9752;54.270;12.470;2022-12-10T02:10:13;101249.75;;;-2.98;100.00
19236;BME280;9752;54.270;12.470;2022-12-10T02:15:22;101249.81;;;-3.25;100.00
19236;BME280;9752;54.270;12.470;2022-12-10T02:20:31;101245.91;;;-2.94;100.00
19236;BME280;9752;54.270;12.470;2022-12-10T02:25:41;101247.19;;;-2.90;100.00
19236;BME280;9752;54.270;12.470;2022-12-10T02:30:50;101235.75;;;-2.94;100.00
19236;BME280;9752;54.270;12.470;2022-12-10T02:35:55;101242.31;;;-2.89;100.00
19236;BME280;9752;54.270;12.470;2022-12-10T02:40:59;101236.28;;;-3.04;100.00
19236;BME280;9752;54.270;12.470;2022-12-10T02:46:06;101244.81;;;-3.10;100.00
19236;BME280;9752;54.270;12.470;2022-12-10T02:51:08;101240.81;;;-3.16;100.00
19236;BME280;9752;54.270;12.470;2022-12-10T02:56:17;101241.91;;;-3.06;100.00
19236;BME280;9752;54.270;12.470;2022-12-10T03:01:28;101245.34;;;-3.06;100.00
19236;BME280;9752;54.270;12.470;2022-12-10T03:06:38;101246.25;;;-3.12;100.00
19236;BME280;9752;54.270;12.470;2022-12-10T03:11:43;101247.00;;;-3.06;100.00
19236;BME280;9752;54.270;12.470;2022-12-10T03:16:50;101252.06;;;-3.06;100.00
19236;BME280;9752;54.270;12.470;2022-12-10T03:21:55;101255.50;;;-3.06;100.00
19236;BME280;9752;54.270;12.470;2022-12-10T03:26:59;101258.03;;;-3.06;100.00
19236;BME280;9752;54.270;12.470;2022-12-10T03:32:03;101262.53;;;-3.18;100.00
19236;BME280;9752;54.270;12.470;2022-12-10T03:37:06;101252.63;;;-2.95;100.00
19236;BME280;9752;54.270;12.470;2022-12-10T03:42:08;101261.88;;;-2.95;100.00
19236;BME280;9752;54.270;12.470;2022-12-10T03:47:13;101261.91;;;-2.88;100.00
19236;BME280;9752;54.270;12.470;2022-12-10T03:52:15;101264.06;;;-2.91;100.00
19236;BME280;9752;54.270;12.470;2022-12-10T03:57:17;101266.56;;;-2.98;100.00
19236;BME280;9752;54.270;12.470;2022-12-10T04:02:20;101260.97;;;-3.03;100.00
19236;BME280;9752;54.270;12.470;2022-12-10T04:07:22;101264.91;;;-3.12;100.00
19236;BME280;9752;54.270;12.470;2022-12-10T04:12:23;101261.47;;;-3.12;100.00
19236;BME280;9752;54.270;12.470;2022-12-10T04:17:26;101254.06;;;-3.11;100.00
19236;BME280;9752;54.270;12.470;2022-12-10T04:22:28;101251.84;;;-3.15;100.00
19236;BME280;9752;54.270;12.470;2022-12-10T04:27:47;101259.66;;;-3.14;100.00
19236;BME280;9752;54.270;12.470;2022-12-10T04:32:50;101261.09;;;-3.16;100.00
19236;BME280;9752;54.270;12.470;2022-12-10T04:37:52;101257.31;;;-3.12;100.00
19236;BME280;9752;54.270;12.470;2022-12-10T04:42:54;101252.03;;;-3.14;100.00
19236;BME280;9752;54.270;12.470;2022-12-10T04:47:57;101262.31;;;-3.26;100.00
19236;BME280;9752;54.270;12.470;2022-12-10T04:52:59;101265.44;;;-3.22;100.00
19236;BME280;9752;54.270;12.470;2022-12-10T04:58:00;101261.06;;;-3.23;100.00
19236;BME280;9752;54.270;12.470;2022-12-10T05:03:03;101262.16;;;-3.28;100.00
19236;BME280;9752;54.270;12.470;2022-12-10T05:08:05;101263.91;;;-3.41;100.00
19236;BME280;9752;54.270;12.470;2022-12-10T05:13:07;101257.75;;;-3.43;100.00
19236;BME280;9752;54.270;12.470;2022-12-10T05:18:10;101262.31;;;-3.34;100.00
19236;BME280;9752;54.270;12.470;2022-12-10T05:23:11;101261.78;;;-3.31;100.00
19236;BME280;9752;54.270;12.470;2022-12-10T05:28:34;101270.28;;;-3.30;100.00
19236;BME280;9752;54.270;12.470;2022-12-10T05:33:38;101275.94;;;-3.26;100.00
19236;BME280;9752;54.270;12.470;2022-12-10T05:38:40;101270.44;;;-3.43;100.00
19236;BME280;9752;54.270;12.470;2022-12-10T05:43:42;101275.66;;;-3.42;100.00
19236;BME280;9752;54.270;12.470;2022-12-10T05:48:46;101278.19;;;-3.42;100.00
19236;BME280;9752;54.270;12.470;2022-12-10T05:53:48;101273.31;;;-3.40;100.00
19236;BME280;9752;54.270;12.470;2022-12-10T05:58:51;101259.50;;;-3.49;100.00
19236;BME280;9752;54.270;12.470;2022-12-10T06:03:56;101268.06;;;-3.42;100.00
19236;BME280;9752;54.270;12.470;2022-12-10T06:08:58;101272.22;;;-3.42;100.00
19236;BME280;9752;54.270;12.470;2022-12-10T06:14:00;101275.13;;;-3.46;100.00
19236;BME280;9752;54.270;12.470;2022-12-10T06:19:04;101270.09;;;-3.39;100.00
19236;BME280;9752;54.270;12.470;2022-12-10T06:24:06;101268.28;;;-3.33;100.00
19236;BME280;9752;54.270;12.470;2022-12-10T06:29:09;101271.53;;;-3.34;100.00
19236;BME280;9752;54.270;12.470;2022-12-10T06:34:12;101272.81;;;-3.38;100.00
19236;BME280;9752;54.270;12.470;2022-12-10T06:39:13;101269.66;;;-3.49;100.00
19236;BME280;9752;54.270;12.470;2022-12-10T06:44:15;101273.47;;;-3.46;100.00
19236;BME280;9752;54.270;12.470;2022-12-10T06:49:18;101270.25;;;-3.45;100.00
19236;BME280;9752;54.270;12.470;2022-12-10T06:54:20;101275.81;;;-3.47;100.00
19236;BME280;9752;54.270;12.470;2022-12-10T06:59:22;101282.53;;;-3.48;100.00
19236;BME280;9752;54.270;12.470;2022-12-10T07:04:25;101283.03;;;-3.58;100.00
19236;BME280;9752;54.270;12.470;2022-12-10T07:09:26;101289.94;;;-3.49;100.00
19236;BME280;9752;54.270;12.470;2022-12-10T07:14:28;101297.19;;;-3.53;100.00
19236;BME280;9752;54.270;12.470;2022-12-10T07:19:31;101299.13;;;-3.57;100.00
19236;BME280;9752;54.270;12.470;2022-12-10T07:24:33;101290.38;;;-3.39;100.00
19236;BME280;9752;54.270;12.470;2022-12-10T07:29:35;101308.31;;;-3.38;100.00
19236;BME280;9752;54.270;12.470;2022-12-10T07:34:38;101300.88;;;-3.36;100.00
19236;BME280;9752;54.270;12.470;2022-12-10T07:39:40;101303.25;;;-3.30;100.00
19236;BME280;9752;54.270;12.470;2022-12-10T07:44:43;101316.09;;;-3.36;100.00
19236;BME280;9752;54.270;12.470;2022-12-10T07:49:46;101310.31;;;-3.35;100.00
19236;BME280;9752;54.270;12.470;2022-12-10T07:54:48;101311.78;;;-3.30;100.00
19236;BME280;9752;54.270;12.470;2022-12-10T07:59:49;101316.53;;;-3.26;100.00
19236;BME280;9752;54.270;12.470;2022-12-10T08:04:52;101320.53;;;-3.14;100.00
19236;BME280;9752;54.270;12.470;2022-12-10T08:09:54;101307.66;;;-3.15;100.00
19236;BME280;9752;54.270;12.470;2022-12-10T08:14:56;101314.97;;;-3.11;100.00
19236;BME280;9752;54.270;12.470;2022-12-10T08:19:59;101311.28;;;-3.13;100.00
19236;BME280;9752;54.270;12.470;2022-12-10T08:25:00;101321.13;;;-3.02;100.00
19236;BME280;9752;54.270;12.470;2022-12-10T08:30:03;101314.97;;;-3.04;100.00
19236;BME280;9752;54.270;12.470;2022-12-10T08:35:07;101321.31;;;-3.00;100.00
19236;BME280;9752;54.270;12.470;2022-12-10T08:40:10;101317.72;;;-2.95;100.00
19236;BME280;9752;54.270;12.470;2022-12-10T08:45:11;101318.78;;;-3.00;100.00
19236;BME280;9752;54.270;12.470;2022-12-10T08:50:15;101330.13;;;-2.77;100.00
19236;BME280;9752;54.270;12.470;2022-12-10T08:55:17;101319.94;;;-2.69;100.00
19236;BME280;9752;54.270;12.470;2022-12-10T09:00:19;101324.66;;;-2.80;100.00
19236;BME280;9752;54.270;12.470;2022-12-10T09:05:22;101327.38;;;-2.78;100.00
19236;BME280;9752;54.270;12.470;2022-12-10T09:10:24;101333.94;;;-2.66;100.00
19236;BME280;9752;54.270;12.470;2022-12-10T09:15:26;101339.59;;;-2.54;100.00
19236;BME280;9752;54.270;12.470;2022-12-10T09:20:29;101336.69;;;-2.36;100.00
19236;BME280;9752;54.270;12.470;2022-12-10T09:25:30;101348.81;;;-2.55;100.00
19236;BME280;9752;54.270;12.470;2022-12-10T09:30:32;101350.81;;;-2.59;100.00
19236;BME280;9752;54.270;12.470;2022-12-10T09:35:39;101348.97;;;-2.75;100.00
19236;BME280;9752;54.270;12.470;2022-12-10T09:40:45;101344.59;;;-2.76;100.00
19236;BME280;9752;54.270;12.470;2022-12-10T09:45:58;101327.66;;;-2.41;100.00
19236;BME280;9752;54.270;12.470;2022-12-10T09:51:09;101319.28;;;-2.54;100.00
19236;BME280;9752;54.270;12.470;2022-12-10T09:56:19;101322.00;;;-2.45;100.00
19236;BME280;9752;54.270;12.470;2022-12-10T10:01:25;101321.84;;;-2.25;100.00
19236;BME280;9752;54.270;12.470;2022-12-10T10:06:30;101317.13;;;-2.29;100.00
19236;BME280;9752;54.270;12.470;2022-12-10T10:11:34;101320.00;;;-2.48;100.00
19236;BME280;9752;54.270;12.470;2022-12-10T10:16:40;101312.03;;;-2.37;100.00
19236;BME280;9752;54.270;12.470;2022-12-10T10:21:48;101313.47;;;-2.67;100.00
19236;BME280;9752;54.270;12.470;2022-12-10T10:26:53;101304.91;;;-2.82;100.00
19236;BME280;9752;54.270;12.470;2022-12-10T10:32:12;101305.38;;;-2.99;100.00
19236;BME280;9752;54.270;12.470;2022-12-10T10:37:20;101313.13;;;-3.12;100.00
19236;BME280;9752;54.270;12.470;2022-12-10T10:42:34;101317.34;;;-3.05;100.00
19236;BME280;9752;54.270;12.470;2022-12-10T10:47:37;101317.09;;;-3.14;100.00
19236;BME280;9752;54.270;12.470;2022-12-10T10:52:41;101318.91;;;-3.20;100.00
19236;BME280;9752;54.270;12.470;2022-12-10T10:57:43;101324.88;;;-3.20;100.00
19236;BME280;9752;54.270;12.470;2022-12-10T11:02:45;101315.13;;;-3.17;100.00
19236;BME280;9752;54.270;12.470;2022-12-10T11:07:48;101318.91;;;-3.20;100.00
19236;BME280;9752;54.270;12.470;2022-12-10T11:12:54;101312.06;;;-3.07;100.00
19236;BME280;9752;54.270;12.470;2022-12-10T11:17:57;101314.41;;;-3.08;100.00
19236;BME280;9752;54.270;12.470;2022-12-10T11:23:02;101309.09;;;-3.17;100.00
19236;BME280;9752;54.270;12.470;2022-12-10T11:28:10;101315.13;;;-3.17;100.00
19236;BME280;9752;54.270;12.470;2022-12-10T11:33:21;101312.81;;;-3.01;100.00
19236;BME280;9752;54.270;12.470;2022-12-10T11:38:30;101310.78;;;-3.10;100.00
19236;BME280;9752;54.270;12.470;2022-12-10T11:43:44;101306.06;;;-3.07;100.00
19236;BME280;9752;54.270;12.470;2022-12-10T11:49:00;101320.19;;;-3.17;100.00
19236;BME280;9752;54.270;12.470;2022-12-10T11:54:19;101318.00;;;-3.14;100.00
19236;BME280;9752;54.270;12.470;2022-12-10T11:59:32;101317.31;;;-3.12;100.00
19236;BME280;9752;54.270;12.470;2022-12-10T12:04:57;101309.09;;;-3.24;100.00
19236;BME280;9752;54.270;12.470;2022-12-10T12:10:35;101306.75;;;-3.16;100.00
19236;BME280;9752;54.270;12.470;2022-12-10T12:15:48;101294.03;;;-3.23;100.00
19236;BME280;9752;54.270;12.470;2022-12-10T12:20:54;101294.19;;;-3.36;100.00
19236;BME280;9752;54.270;12.470;2022-12-10T12:26:02;101298.19;;;-3.30;100.00
19236;BME280;9752;54.270;12.470;2022-12-10T12:31:09;101302.84;;;-3.41;100.00
19236;BME280;9752;54.270;12.470;2022-12-10T12:36:16;101314.81;;;-3.40;100.00
19236;BME280;9752;54.270;12.470;2022-12-10T12:41:29;101311.50;;;-3.46;100.00
19236;BME280;9752;54.270;12.470;2022-12-10T12:46:35;101311.88;;;-3.50;100.00
19236;BME280;9752;54.270;12.470;2022-12-10T12:51:44;101315.63;;;-3.54;100.00
19236;BME280;9752;54.270;12.470;2022-12-10T12:56:55;101323.19;;;-3.61;100.00
19236;BME280;9752;54.270;12.470;2022-12-10T13:02:02;101318.97;;;-3.75;100.00
19236;BME280;9752;54.270;12.470;2022-12-10T13:07:11;101328.22;;;-3.95;100.00
19236;BME280;9752;54.270;12.470;2022-12-10T13:12:30;101325.72;;;-4.15;100.00
19236;BME280;9752;54.270;12.470;2022-12-10T13:17:34;101335.31;;;-4.33;100.00
19236;BME280;9752;54.270;12.470;2022-12-10T13:22:44;101331.94;;;-4.46;100.00
19236;BME280;9752;54.270;12.470;2022-12-10T13:28:16;101329.50;;;-4.59;100.00
19236;BME280;9752;54.270;12.470;2022-12-10T13:33:21;101344.72;;;-4.72;100.00
19236;BME280;9752;54.270;12.470;2022-12-10T13:38:24;101346.50;;;-4.91;100.00
19236;BME280;9752;54.270;12.470;2022-12-10T13:43:35;101352.09;;;-5.06;100.00
19236;BME280;9752;54.270;12.470;2022-12-10T13:48:56;101357.38;;;-5.30;100.00
19236;BME280;9752;54.270;12.470;2022-12-10T13:54:11;101350.22;;;-5.40;100.00
19236;BME280;9752;54.270;12.470;2022-12-10T13:59:35;101342.34;;;-5.61;100.00
19236;BME280;9752;54.270;12.470;2022-12-10T14:04:57;101353.53;;;-5.72;100.00
19236;BME280;9752;54.270;12.470;2022-12-10T14:10:03;101352.09;;;-5.83;100.00
19236;BME280;9752;54.270;12.470;2022-12-10T14:15:18;101358.97;;;-5.95;100.00
19236;BME280;9752;54.270;12.470;2022-12-10T14:20:24;101359.59;;;-6.03;100.00
19236;BME280;9752;54.270;12.470;2022-12-10T14:25:26;101361.81;;;-5.99;100.00
19236;BME280;9752;54.270;12.470;2022-12-10T14:30:29;101370.50;;;-5.97;100.00
19236;BME280;9752;54.270;12.470;2022-12-10T14:35:31;101362.31;;;-6.33;100.00
19236;BME280;9752;54.270;12.470;2022-12-10T14:40:40;101372.59;;;-6.62;100.00
19236;BME280;9752;54.270;12.470;2022-12-10T14:45:46;101369.25;;;-6.69;100.00
19236;BME280;9752;54.270;12.470;2022-12-10T14:50:48;101368.53;;;-6.86;100.00
19236;BME280;9752;54.270;12.470;2022-12-10T14:55:53;101379.50;;;-7.04;100.00
19236;BME280;9752;54.270;12.470;2022-12-10T15:00:58;101374.34;;;-6.93;100.00
19236;BME280;9752;54.270;12.470;2022-12-10T15:06:02;101379.34;;;-7.05;100.00
19236;BME280;9752;54.270;12.470;2022-12-10T15:11:14;101389.72;;;-7.34;100.00
19236;BME280;9752;54.270;12.470;2022-12-10T15:16:28;101392.81;;;-7.72;100.00
19236;BME280;9752;54.270;12.470;2022-12-10T15:21:30;101392.91;;;-7.83;100.00
19236;BME280;9752;54.270;12.470;2022-12-10T15:26:33;101401.69;;;-7.98;100.00
19236;BME280;9752;54.270;12.470;2022-12-10T15:31:36;101401.72;;;-8.03;100.00
19236;BME280;9752;54.270;12.470;2022-12-10T15:36:40;101400.41;;;-8.13;100.00
19236;BME280;9752;54.270;12.470;2022-12-10T15:41:44;101407.56;;;-8.21;100.00
19236;BME280;9752;54.270;12.470;2022-12-10T15:46:48;101404.84;;;-8.23;100.00
19236;BME280;9752;54.270;12.470;2022-12-10T15:51:50;101409.97;;;-8.40;100.00
19236;BME280;9752;54.270;12.470;2022-12-10T15:56:52;101409.34;;;-8.50;100.00
19236;BME280;9752;54.270;12.470;2022-12-10T16:01:56;101413.53;;;-8.62;100.00
19236;BME280;9752;54.270;12.470;2022-12-10T16:06:58;101412.59;;;-8.57;100.00
19236;BME280;9752;54.270;12.470;2022-12-10T16:12:00;101409.44;;;-8.73;100.00
19236;BME280;9752;54.270;12.470;2022-12-10T16:17:03;101413.38;;;-8.80;100.00
19236;BME280;9752;54.270;12.470;2022-12-10T16:22:05;101408.84;;;-8.89;100.00
19236;BME280;9752;54.270;12.470;2022-12-10T16:27:11;101410.91;;;-8.97;100.00
19236;BME280;9752;54.270;12.470;2022-12-10T16:32:14;101407.50;;;-9.04;100.00
19236;BME280;9752;54.270;12.470;2022-12-10T16:37:16;101407.00;;;-8.95;100.00
19236;BME280;9752;54.270;12.470;2022-12-10T16:42:18;101418.50;;;-9.20;100.00
19236;BME280;9752;54.270;12.470;2022-12-10T16:47:21;101420.13;;;-9.26;100.00
19236;BME280;9752;54.270;12.470;2022-12-10T16:52:22;101426.53;;;-9.39;100.00
19236;BME280;9752;54.270;12.470;2022-12-10T16:57:24;101426.31;;;-9.47;100.00
19236;BME280;9752;54.270;12.470;2022-12-10T17:02:27;101422.91;;;-9.53;100.00
19236;BME280;9752;54.270;12.470;2022-12-10T17:07:29;101421.31;;;-9.69;100.00
19236;BME280;9752;54.270;12.470;2022-12-10T17:12:30;101424.50;;;-9.65;100.00
19236;BME280;9752;54.270;12.470;2022-12-10T17:17:34;101438.44;;;-9.72;100.00
19236;BME280;9752;54.270;12.470;2022-12-10T17:22:36;101433.88;;;-9.69;100.00
19236;BME280;9752;54.270;12.470;2022-12-10T17:27:38;101435.44;;;-9.70;100.00
19236;BME280;9752;54.270;12.470;2022-12-10T17:32:41;101433.16;;;-9.74;100.00
19236;BME280;9752;54.270;12.470;2022-12-10T17:37:43;101440.94;;;-9.84;100.00
19236;BME280;9752;54.270;12.470;2022-12-10T17:42:45;101439.09;;;-9.85;100.00
19236;BME280;9752;54.270;12.470;2022-12-10T17:47:48;101432.50;;;-9.56;100.00
19236;BME280;9752;54.270;12.470;2022-12-10T17:52:50;101439.56;;;-9.36;100.00
19236;BME280;9752;54.270;12.470;2022-12-10T17:57:52;101452.34;;;-9.52;100.00
19236;BME280;9752;54.270;12.470;2022-12-10T18:02:55;101441.59;;;-9.51;100.00
19236;BME280;9752;54.270;12.470;2022-12-10T18:07:57;101444.81;;;-9.40;100.00
19236;BME280;9752;54.270;12.470;2022-12-10T18:13:00;101445.25;;;-9.49;100.00
19236;BME280;9752;54.270;12.470;2022-12-10T18:18:03;101444.34;;;-9.55;100.00
19236;BME280;9752;54.270;12.470;2022-12-10T18:23:06;101433.41;;;-9.50;100.00
19236;BME280;9752;54.270;12.470;2022-12-10T18:28:44;101444.34;;;-9.27;100.00
19236;BME280;9752;54.270;12.470;2022-12-10T18:33:51;101450.03;;;-9.39;100.00
19236;BME280;9752;54.270;12.470;2022-12-10T18:38:54;101456.25;;;-9.54;100.00
19236;BME280;9752;54.270;12.470;2022-12-10T18:43:56;101453.03;;;-9.53;100.00
19236;BME280;9752;54.270;12.470;2022-12-10T18:49:00;101461.47;;;-9.35;100.00
19236;BME280;9752;54.270;12.470;2022-12-10T18:54:02;101478.59;;;-9.27;100.00
19236;BME280;9752;54.270;12.470;2022-12-10T18:59:06;101477.66;;;-9.11;100.00
19236;BME280;9752;54.270;12.470;2022-12-10T19:04:13;101469.66;;;-8.97;100.00
19236;BME280;9752;54.270;12.470;2022-12-10T19:09:16;101466.63;;;-8.83;100.00
19236;BME280;9752;54.270;12.470;2022-12-10T19:14:19;101455.41;;;-8.68;100.00
19236;BME280;9752;54.270;12.470;2022-12-10T19:19:24;101449.66;;;-8.20;100.00
19236;BME280;9752;54.270;12.470;2022-12-10T19:24:26;101449.72;;;-7.91;100.00
19236;BME280;9752;54.270;12.470;2022-12-10T19:29:28;101462.34;;;-7.67;100.00
19236;BME280;9752;54.270;12.470;2022-12-10T19:34:31;101459.97;;;-7.54;100.00
19236;BME280;9752;54.270;12.470;2022-12-10T19:39:33;101458.53;;;-7.46;100.00
19236;BME280;9752;54.270;12.470;2022-12-10T19:44:35;101467.06;;;-7.27;100.00
19236;BME280;9752;54.270;12.470;2022-12-10T19:49:38;101483.25;;;-7.19;100.00
19236;BME280;9752;54.270;12.470;2022-12-10T19:54:39;101484.28;;;-7.30;100.00
19236;BME280;9752;54.270;12.470;2022-12-10T19:59:41;101493.03;;;-7.34;100.00
19236;BME280;9752;54.270;12.470;2022-12-10T20:04:45;101499.50;;;-7.41;100.00
19236;BME280;9752;54.270;12.470;2022-12-10T20:09:46;101494.19;;;-7.37;100.00
19236;BME280;9752;54.270;12.470;2022-12-10T20:14:48;101486.31;;;-7.28;100.00
19236;BME280;9752;54.270;12.470;2022-12-10T20:19:51;101482.19;;;-7.27;100.00
19236;BME280;9752;54.270;12.470;2022-12-10T20:24:53;101485.41;;;-7.28;100.00
19236;BME280;9752;54.270;12.470;2022-12-10T20:29:55;101473.66;;;-7.22;100.00
19236;BME280;9752;54.270;12.470;2022-12-10T20:34:58;101476.41;;;-7.20;100.00
19236;BME280;9752;54.270;12.470;2022-12-10T20:40:00;101474.66;;;-7.33;100.00
19236;BME280;9752;54.270;12.470;2022-12-10T20:45:01;101477.78;;;-7.47;100.00
19236;BME280;9752;54.270;12.470;2022-12-10T20:50:06;101484.03;;;-7.56;100.00
19236;BME280;9752;54.270;12.470;2022-12-10T20:55:08;101484.75;;;-7.57;100.00
19236;BME280;9752;54.270;12.470;2022-12-10T21:00:15;101484.03;;;-7.56;100.00
19236;BME280;9752;54.270;12.470;2022-12-10T21:05:18;101481.19;;;-7.46;100.00
19236;BME280;9752;54.270;12.470;2022-12-10T21:10:21;101466.25;;;-7.39;100.00
19236;BME280;9752;54.270;12.470;2022-12-10T21:15:40;101469.91;;;-7.37;100.00
19236;BME280;9752;54.270;12.470;2022-12-10T21:20:44;101461.22;;;-7.39;100.00
19236;BME280;9752;54.270;12.470;2022-12-10T21:25:46;101457.72;;;-7.58;100.00
19236;BME280;9752;54.270;12.470;2022-12-10T21:30:48;101462.91;;;-7.80;100.00
19236;BME280;9752;54.270;12.470;2022-12-10T21:35:52;101476.34;;;-8.04;100.00
19236;BME280;9752;54.270;12.470;2022-12-10T21:40:55;101468.81;;;-8.10;100.00
19236;BME280;9752;54.270;12.470;2022-12-10T21:46:06;101465.00;;;-8.25;100.00
19236;BME280;9752;54.270;12.470;2022-12-10T21:51:10;101461.41;;;-8.38;100.00
19236;BME280;9752;54.270;12.470;2022-12-10T21:56:12;101457.84;;;-8.51;100.00
19236;BME280;9752;54.270;12.470;2022-12-10T22:01:14;101445.81;;;-8.30;100.00
19236;BME280;9752;54.270;12.470;2022-12-10T22:06:22;101456.03;;;-8.58;100.00
19236;BME280;9752;54.270;12.470;2022-12-10T22:11:24;101447.34;;;-8.54;100.00
19236;BME280;9752;54.270;12.470;2022-12-10T22:16:26;101446.03;;;-8.28;100.00
19236;BME280;9752;54.270;12.470;2022-12-10T22:21:29;101449.22;;;-7.88;100.00
19236;BME280;9752;54.270;12.470;2022-12-10T22:26:31;101441.75;;;-8.40;100.00
19236;BME280;9752;54.270;12.470;2022-12-10T22:31:33;101445.75;;;-8.59;100.00
19236;BME280;9752;54.270;12.470;2022-12-10T22:36:36;101445.56;;;-8.26;100.00
19236;BME280;9752;54.270;12.470;2022-12-10T22:41:38;101460.91;;;-8.30;100.00
19236;BME280;9752;54.270;12.470;2022-12-10T22:46:39;101457.00;;;-7.87;100.00
19236;BME280;9752;54.270;12.470;2022-12-10T22:51:42;101462.22;;;-7.50;100.00
19236;BME280;9752;54.270;12.470;2022-12-10T22:56:44;101457.94;;;-7.32;100.00
19236;BME280;9752;54.270;12.470;2022-12-10T23:01:46;101457.84;;;-7.21;100.00
19236;BME280;9752;54.270;12.470;2022-12-10T23:06:49;101452.31;;;-7.18;100.00
19236;BME280;9752;54.270;12.470;2022-12-10T23:11:51;101438.97;;;-7.12;100.00
19236;BME280;9752;54.270;12.470;2022-12-10T23:17:10;101445.19;;;-7.15;100.00
19236;BME280;9752;54.270;12.470;2022-12-10T23:22:13;101442.09;;;-7.01;100.00
19236;BME280;9752;54.270;12.470;2022-12-10T23:27:15;101441.84;;;-6.79;100.00
19236;BME280;9752;54.270;12.470;2022-12-10T23:32:17;101444.34;;;-6.60;100.00
19236;BME280;9752;54.270;12.470;2022-12-10T23:37:20;101441.47;;;-6.51;100.00
19236;BME280;9752;54.270;12.470;2022-12-10T23:42:25;101445.41;;;-6.53;100.00
19236;BME280;9752;54.270;12.470;2022-12-10T23:47:27;101441.41;;;-6.45;100.00
19236;BME280;9752;54.270;12.470;2022-12-10T23:52:30;101446.31;;;-6.34;100.00
19236;BME280;9752;54.270;12.470;2022-12-10T23:57:32;101431.59;;;-6.31;100.00
